Terminal Aerodrome Forecast
Issued by NWS Spokane, WA

Home | Current Version | Previous Version | Text Only | Print | Product List | Glossary On
Versions: 1 2 3 4 5 6 7 8 9 10 11 12 13 14
000
FTUS46 KOTX 161139
TAFEAT
TAF
KEAT 161139Z 1612/1712 28005KT P6SM VCSH SCT050 BKN070 OVC090
     FM161700 30006KT P6SM BKN070 OVC090
     FM170000 30008KT P6SM OVC090=

USA.gov is the U.S. government's official web portal to all federal, state and local government web resources and services.